CYAZ/YAZ METAR and TAF weather

Enter ICAO airport designator
Station Type Date Time Source
CYAZ METAR 2021/10/22 20:00 UTC NOAA

CYAZ 222000Z 16006KT 8SM FEW020 BKN062 13/10 A2973 RMK CU2SC3 SLP069 DENSITY ALT 100FT


Station Type Date Time Source
CYAZ Decoded METAR 2021/10/22 20:00 UTC NOAA

Tofino Airport, Canada (CYAZ) 49-05N 125-46W
Oct 22, 2021 - 04:00 PM EDT / 2021.10.22 2000 UTC
Wind: from the SSE (160 degrees) at 7 MPH (6 KT):0
Visibility: 8 mile(s):0
Sky conditions: mostly cloudy
Temperature: 55 F (13 C)
Dew Point: 50 F (10 C)
Relative Humidity: 81%
Pressure (altimeter): 29.73 in. Hg (1006 hPa)
ob: CYAZ 222000Z 16006KT 8SM FEW020 BKN062 13/10 A2973 RMK CU2SC3 SLP069 DENSITY ALT 100FT
cycle: 20

Station Type Date Time Source
CYAZ TAF 2021/10/22 19:00 UTC NOAA

TAF CYAZ 221838Z 2219/2301 VRB03KT P6SM FEW005 SCT040
TEMPO 2219/2220 5SM BR
FM222000 17006KT P6SM SCT040
TEMPO 2220/2301 P6SM -SHRA BKN040
RMK NXT FCST WILL BE ISSUED AT 231445Z

Example: see airport list